Ventero, New Mexico
Current Conditions -  °F | °C
As of 11:15 AM on Friday 19 Dec 2014 (Local Time) from KSKX Reporting Station
Broken Clouds Broken Clouds  
Wind Chill: 28°   Ceiling: 1400
Heat Index: 28°   Visibility: 10mi
Dew Point: 19°   Wind: 0mph
Humidity: 69%   Direction: NA
Pressure: 30.19"   Gusts: NA
Location:  36.9654°N, 105.429°W
Report Text: KSKX 191815Z AUTO 00000KT 10SM BKN014 M02/M07 A3019 RMK AO1
Loading
Personal Weather Stations






























Interactive Weather Map New forecast layout! Learn more

10-Day Weather Forecast

Advertisements
Track Severe Weather on mobile